Terminal Aerodrome Forecast
Issued by NWS

Home | Current Version | Previous Version | Text Only | Print | Product List | Glossary On
Versions: 1 2 3 4 5 6 7 8 9 10 11 12 13 14 15 16 17 18 19 20 21 22 23 24 25 26 27 28 29
000
FTUS45 KBOU 220527
TAFAPA
TAF
KAPA 220527Z 2206/2306 34006KT P6SM VCSH BKN100 OVC200
      TEMPO 2206/2208 31015G25KT -SHRA BKN080
     FM220800 20008KT P6SM SCT120 BKN200
     FM221500 VRB06KT P6SM SCT080 BKN150
     FM221900 10007KT P6SM VCSH SCT060 BKN140
     FM230000 13006KT P6SM SCT080 BKN200
     FM230300 20007KT P6SM SCT100 BKN200=

USA.gov is the U.S. government's official web portal to all federal, state and local government web resources and services.